Hatsu Courage — V7JC7 — position and weather

sailwx.info

Track history (hours):
 
Tides and Currents Weather Stations Pressure Air Temp Water Temp Dewpoint Dewpoint Depression Visibility Wind Speed Wind Dir Waves Ship Positions

Hatsu Courage (Marshall Islands)

Last reported at 2017-Dec-02 03:00 UTC. Time now 2017-Dec-15 18:16 UTC.
Position N 49°48' W 003°50'.
Warning: this ship's position is 13 days out of date.

Length 200 m; draft 8.4 m.

Type: Cargo ship. MMSI: 538006034.

Date/timePositionNaut miles runAvg speedWind from/ knotsBaromVisibWave heightAir tempDewpointWater temp
2017-Dec-02 03:00N 49°48' W 003°50'1712.3
2017-Dec-02 01:38N 49°53' W 003°25'213.2
2017-Dec-02 01:30N 49°54' W 003°23'713.8
2017-Dec-02 01:01N 49°56' W 003°13'714.3
2017-Dec-02 00:31N 49°58' W 003°02'714.9
2017-Dec-02 00:01N 50°01' W 002°51'815.4
2017-Dec-01 23:31N 50°03' W 002°40'815.5
2017-Dec-01 23:01N 50°05' W 002°28'1215.2
2017-Dec-01 22:13N 50°08' W 002°10'314.7
2017-Dec-01 22:01N 50°09' W 002°05'714.1
2017-Dec-01 21:30N 50°11' W 001°55'713.2
2017-Dec-01 21:00N 50°13' W 001°45'612.5
2017-Dec-01 20:30N 50°14' W 001°35'611.7
2017-Dec-01 20:01N 50°16' W 001°27'611.1
2017-Dec-01 19:30N 50°17' W 001°18'3610.9
2017-Dec-01 16:10N 50°28' W 000°23'413.2
2017-Dec-01 15:52N 50°29' W 000°18'513.5
2017-Dec-01 15:30N 50°31' W 000°10'714.2
2017-Dec-01 15:00N 50°33' E 000°01'714.7
2017-Dec-01 14:30N 50°34' E 000°12'715.0
2017-Dec-01 14:00N 50°36' E 000°23'714.8
2017-Dec-01 13:30N 50°38' E 000°34'714.7
2017-Dec-01 13:00N 50°42' E 000°44'714.3
2017-Dec-01 12:30N 50°46' E 000°53'713.8
2017-Dec-01 12:00N 50°51' E 001°02'1013.0
2017-Dec-01 11:16N 50°57' E 001°14'312.0
2017-Dec-01 10:59N 50°59' E 001°18'611.6
2017-Dec-01 10:30N 51°03' E 001°25'612.1
2017-Dec-01 10:00N 51°06' E 001°32'612.0
2017-Dec-01 09:31N 51°10' E 001°40'611.9
2017-Dec-01 09:00N 51°15' E 001°46'713.2
2017-Dec-01 08:30N 51°21' E 001°50'713.7
2017-Dec-01 08:00N 51°27' E 001°54'714.5
2017-Dec-01 07:30N 51°32' E 002°02'714.8
2017-Dec-01 07:00N 51°38' E 002°11'7014.0
2017-Dec-01 01:58N 52°28' E 003°30'712.2
2017-Dec-01 01:25N 52°31' E 003°40'512.3
2017-Dec-01 01:00N 52°32' E 003°48'612.3
2017-Dec-01 00:30N 52°32' E 003°58'612.5
2017-Dec-01 00:00N 52°31' E 004°09'613.0
2017-Nov-30 23:30N 52°30' E 004°19'510.8
2017-Nov-30 23:00N 52°29' E 004°28'510.5
2017-Nov-30 22:31N 52°28' E 004°36'0 0.6
2017-Nov-30 22:01N 52°28' E 004°37'1 2.5
2017-Nov-30 21:30N 52°28' E 004°39'4 7.5
2017-Nov-30 21:01N 52°26' E 004°44'4 7.7
2017-Nov-30 20:30N 52°25' E 004°50'1 2.5
2017-Nov-30 19:58N 52°24' E 004°52'0 0.1
2017-Nov-30 19:28N 52°24' E 004°52'0 0.0
2017-Nov-30 18:58N 52°24' E 004°52'0 0.0
2017-Nov-30 18:25N 52°24' E 004°52'0 0.0
2017-Nov-30 17:58N 52°24' E 004°52'0 0.0
2017-Nov-30 17:28N 52°24' E 004°52'0 0.0
2017-Nov-30 16:58N 52°24' E 004°52'0 0.0
2017-Nov-30 16:28N 52°24' E 004°52'0 0.0
2017-Nov-30 15:58N 52°24' E 004°52'0 0.0
2017-Nov-30 15:28N 52°24' E 004°52'0 0.0
2017-Nov-30 14:58N 52°24' E 004°52'0 0.0
2017-Nov-30 14:28N 52°24' E 004°52'0 0.0
2017-Nov-30 13:58N 52°24' E 004°52'0 0.0
2017-Nov-30 13:28N 52°24' E 004°52'0 0.0
2017-Nov-30 12:58N 52°24' E 004°52'0 0.0
2017-Nov-30 12:28N 52°24' E 004°52'0 0.0
2017-Nov-30 11:58N 52°24' E 004°52'0 0.0
2017-Nov-30 11:28N 52°24' E 004°52'0 0.0
2017-Nov-30 10:58N 52°24' E 004°52'0 0.0
2017-Nov-30 10:28N 52°24' E 004°52'0 0.0
2017-Nov-30 09:58N 52°24' E 004°52'0 0.0
2017-Nov-30 09:28N 52°24' E 004°52'0 0.0
2017-Nov-30 08:58N 52°24' E 004°52'0 0.0
2017-Nov-30 08:28N 52°24' E 004°52'0 0.0
2017-Nov-30 07:58N 52°24' E 004°52'0 0.0
2017-Nov-30 07:28N 52°24' E 004°52'0 0.0
2017-Nov-30 06:58N 52°24' E 004°52'0 0.0
2017-Nov-30 06:28N 52°24' E 004°52'0 0.0
2017-Nov-30 05:58N 52°24' E 004°52'0 0.0
2017-Nov-30 05:28N 52°24' E 004°52'0 0.0
2017-Nov-30 04:58N 52°24' E 004°52'0 0.0
2017-Nov-30 04:25N 52°24' E 004°52'0 0.0
2017-Nov-30 03:58N 52°24' E 004°52'0 0.0
2017-Nov-30 03:28N 52°24' E 004°52'0 0.0
2017-Nov-30 02:58N 52°24' E 004°52'0 0.0
2017-Nov-30 02:28N 52°24' E 004°52'0 0.0
2017-Nov-30 01:58N 52°24' E 004°52'0 0.0
2017-Nov-30 01:28N 52°24' E 004°52'0 0.0
2017-Nov-30 00:58N 52°24' E 004°52'0 0.0
2017-Nov-30 00:28N 52°24' E 004°52'0 0.0
2017-Nov-29 23:55N 52°24' E 004°52'0 0.0
2017-Nov-29 23:28N 52°24' E 004°52'0 0.0
2017-Nov-29 22:58N 52°24' E 004°52'0 0.0
2017-Nov-29 22:28N 52°24' E 004°52'0 0.0
2017-Nov-29 21:58N 52°24' E 004°52'0 0.0
2017-Nov-29 21:28N 52°24' E 004°52'0 0.0
2017-Nov-29 20:58N 52°24' E 004°52'0 0.0
2017-Nov-29 20:28N 52°24' E 004°52'0 0.0
2017-Nov-29 19:55N 52°24' E 004°52'0 0.0
2017-Nov-29 19:28N 52°24' E 004°52'0 0.0
2017-Nov-29 18:58N 52°24' E 004°52'0 0.0
2017-Nov-29 18:28N 52°24' E 004°52'0 0.0
2017-Nov-29 17:58N 52°24' E 004°52'0 0.0
2017-Nov-29 17:28N 52°24' E 004°52'0 0.0
2017-Nov-29 16:58N 52°24' E 004°52'0 0.0
2017-Nov-29 16:25N 52°24' E 004°52'0 0.0
2017-Nov-29 15:58N 52°24' E 004°52'0 0.0
2017-Nov-29 15:28N 52°24' E 004°52'0 0.0
2017-Nov-29 14:58N 52°24' E 004°52'0 0.0
2017-Nov-29 14:28N 52°24' E 004°52'0 0.0
2017-Nov-29 13:55N 52°24' E 004°52'0 0.0
2017-Nov-29 13:28N 52°24' E 004°52'0 0.0
2017-Nov-29 12:55N 52°24' E 004°52'0 0.0
2017-Nov-29 12:28N 52°24' E 004°52'0 0.0
2017-Nov-29 11:55N 52°24' E 004°52'0 0.0
2017-Nov-29 11:28N 52°24' E 004°52'0 0.0
2017-Nov-29 10:58N 52°24' E 004°52'0 0.0
2017-Nov-29 10:28N 52°24' E 004°52'0 0.0
2017-Nov-29 09:55N 52°24' E 004°52'0 0.0
2017-Nov-29 09:28N 52°24' E 004°52'0 0.0
2017-Nov-29 08:58N 52°24' E 004°52'0 0.0
2017-Nov-29 08:28N 52°24' E 004°52'0 0.0
2017-Nov-29 07:58N 52°24' E 004°52'0 0.0
2017-Nov-29 07:28N 52°24' E 004°52'0 0.0
2017-Nov-29 06:58N 52°24' E 004°52'0 0.0
2017-Nov-29 06:25N 52°24' E 004°52'0 0.0
2017-Nov-29 05:58N 52°24' E 004°52'0 0.0
2017-Nov-29 05:25N 52°24' E 004°52'0 0.0
2017-Nov-29 04:58N 52°24' E 004°52'0 0.0
2017-Nov-29 04:28N 52°24' E 004°52'0 0.0
2017-Nov-29 03:58N 52°24' E 004°52'0 0.0
2017-Nov-29 03:28N 52°24' E 004°52'0 0.0
2017-Nov-29 02:55N 52°24' E 004°52'0 0.0
2017-Nov-29 02:28N 52°24' E 004°52'0 0.0
2017-Nov-29 01:58N 52°24' E 004°52'0 0.0
2017-Nov-29 01:25N 52°24' E 004°52'0 0.0
2017-Nov-29 00:58N 52°24' E 004°52'0 0.0
2017-Nov-29 00:28N 52°24' E 004°52'0 0.0
2017-Nov-28 23:58N 52°24' E 004°52'0 0.0
2017-Nov-28 23:28N 52°24' E 004°52'0 0.0
2017-Nov-28 22:58N 52°24' E 004°52'0 0.0
2017-Nov-28 22:28N 52°24' E 004°52'0 0.0
2017-Nov-28 21:58N 52°24' E 004°52'0 0.0
2017-Nov-28 21:28N 52°24' E 004°52'0 0.0
2017-Nov-28 20:58N 52°24' E 004°52'0 0.0
2017-Nov-28 20:28N 52°24' E 004°52'0 0.0
2017-Nov-28 19:58N 52°24' E 004°52'0 0.0
2017-Nov-28 19:28N 52°24' E 004°52'0 0.0
2017-Nov-28 18:58N 52°24' E 004°52'0 0.0
2017-Nov-28 18:28N 52°24' E 004°52'0 0.0
2017-Nov-28 17:58N 52°24' E 004°52'0 0.0
2017-Nov-28 17:28N 52°24' E 004°52'0 0.0
2017-Nov-28 16:58N 52°24' E 004°52'0 0.0
2017-Nov-28 16:25N 52°24' E 004°52'0 0.0
2017-Nov-28 15:58N 52°24' E 004°52'0 0.0
2017-Nov-28 14:58N 52°24' E 004°52'0 0.0
2017-Nov-28 14:28N 52°24' E 004°52'0 0.0
2017-Nov-28 13:55N 52°24' E 004°52'0 0.0
2017-Nov-28 13:28N 52°24' E 004°52'0 0.0
2017-Nov-28 12:58N 52°24' E 004°52'0 0.0
2017-Nov-28 12:28N 52°24' E 004°52'0 0.0
2017-Nov-28 11:55N 52°24' E 004°52'0 0.0
2017-Nov-28 11:25N 52°24' E 004°52'0 0.0
2017-Nov-28 10:58N 52°24' E 004°52'0 0.0
2017-Nov-28 10:28N 52°24' E 004°52'0 0.0
2017-Nov-28 09:58N 52°24' E 004°52'0 0.0
2017-Nov-28 09:28N 52°24' E 004°52'0 0.0
2017-Nov-28 08:58N 52°24' E 004°52'0 0.0
2017-Nov-28 08:28N 52°24' E 004°52'0 0.0
2017-Nov-28 07:58N 52°24' E 004°52'0 0.0
2017-Nov-28 07:28N 52°24' E 004°52'0 0.0
2017-Nov-28 06:58N 52°24' E 004°52'0 0.0
2017-Nov-28 06:28N 52°24' E 004°52'0 0.0
2017-Nov-28 05:58N 52°24' E 004°52'0 0.0
2017-Nov-28 05:28N 52°24' E 004°52'0 0.0
2017-Nov-28 04:28N 52°24' E 004°52'0 0.0
2017-Nov-28 03:55N 52°24' E 004°52'0 0.0
2017-Nov-28 03:28N 52°24' E 004°52'0 0.0
2017-Nov-28 02:58N 52°24' E 004°52'0 0.0
2017-Nov-28 02:28N 52°24' E 004°52'0 0.0
2017-Nov-28 01:58N 52°24' E 004°52'0 0.1
2017-Nov-28 01:28N 52°24' E 004°52'1 1.4
2017-Nov-28 01:00N 52°24' E 004°52'3 6.0
2017-Nov-28 00:30N 52°25' E 004°48'4 8.6
2017-Nov-28 00:00N 52°27' E 004°41'3 6.2
2017-Nov-27 23:31N 52°28' E 004°36'0 0.3
2017-Nov-27 23:01N 52°28' E 004°36'4 8.6
2017-Nov-27 22:30N 52°29' E 004°29'3 6.8
2017-Nov-27 22:00N 52°29' E 004°24'4 7.7
2017-Nov-27 21:30N 52°29' E 004°17'5 9.3
2017-Nov-27 21:00N 52°29' E 004°10'611.4
2017-Nov-27 20:30N 52°28' E 004°01'510.3
2017-Nov-27 20:00N 52°27' E 003°52'612.2
2017-Nov-27 19:30N 52°26' E 003°42'712.8
2017-Nov-27 19:00N 52°23' E 003°33'5912.5
2017-Nov-27 14:16N 51°40' E 002°26'312.2
2017-Nov-27 14:00N 51°37' E 002°23'612.2
2017-Nov-27 13:30N 51°33' E 002°17'612.6
2017-Nov-27 13:00N 51°28' E 002°10'612.9
2017-Nov-27 12:30N 51°23' E 002°03'713.1
2017-Nov-27 12:00N 51°19' E 001°56'713.5
2017-Nov-27 11:30N 51°14' E 001°49'713.7
2017-Nov-27 11:00N 51°08' E 001°42'713.9
2017-Nov-27 10:30N 51°03' E 001°36'713.5
2017-Nov-27 10:00N 50°57' E 001°30'713.3
2017-Nov-27 09:30N 50°50' E 001°26'713.0
2017-Nov-27 08:59N 50°44' E 001°23'1012.6
2017-Nov-27 08:12N 50°37' E 001°12'412.3
2017-Nov-27 07:51N 50°34' E 001°08'1612.3
2017-Nov-27 06:35N 50°27' E 000°46'212.7
2017-Nov-27 06:25N 50°26' E 000°42'512.7
2017-Nov-27 06:00N 50°25' E 000°34'612.6
2017-Nov-27 05:30N 50°23' E 000°25'612.7
2017-Nov-27 05:00N 50°22' E 000°15'713.0
2017-Nov-27 04:29N 50°20' E 000°05'613.1
2017-Nov-27 04:00N 50°19' W 000°05'713.4
2017-Nov-27 03:30N 50°17' W 000°15'3514.2
2017-Nov-27 01:04N 50°07' W 001°06'114.9
2017-Nov-27 01:01N 50°07' W 001°08'814.5
2017-Nov-27 00:28N 50°04' W 001°20'714.5
2017-Nov-27 00:01N 50°03' W 001°30'714.2
2017-Nov-26 23:31N 50°01' W 001°40'714.0
2017-Nov-26 23:00N 49°59' W 001°51'713.6
2017-Nov-26 22:30N 49°58' W 002°01'713.1
2017-Nov-26 22:00N 49°56' W 002°11'1012.7
2017-Nov-26 21:14N 49°54' W 002°26'412.5
2017-Nov-26 20:57N 49°53' W 002°31'612.4
2017-Nov-26 20:30N 49°51' W 002°39'612.3
2017-Nov-26 20:00N 49°50' W 002°48'612.1
2017-Nov-26 19:30N 49°47' W 002°57'612.1
2017-Nov-26 19:00N 49°44' W 003°05'612.2
2017-Nov-26 18:30N 49°41' W 003°13'9712.5
2017-Nov-26 10:47N 48°52' W 005°21'412.9
2017-Nov-26 10:30N 48°50' W 005°26'5410.8
2017-Nov-26 05:30N 47°56' W 005°30'713.5
2017-Nov-26 05:00N 47°51' W 005°25'713.3
2017-Nov-26 04:28N 47°44' W 005°20'613.2
2017-Nov-26 04:00N 47°39' W 005°15'612.9
2017-Nov-26 03:30N 47°34' W 005°09'3712.8
2017-Nov-26 00:38N 47°22' W 004°18'212.4
2017-Nov-26 00:29N 47°21' W 004°16'3312.7
2017-Nov-25 21:53N 47°10' W 003°30'612.6
2017-Nov-25 21:24N 47°08' W 003°21'512.5
2017-Nov-25 21:00N 47°06' W 003°15'612.5
2017-Nov-25 20:30N 47°04' W 003°06'612.6
2017-Nov-25 20:00N 47°02' W 002°57'1011.5
2017-Nov-25 19:09N 46°58' W 002°44'211.0
2017-Nov-25 19:00N 46°59' W 002°42'511.0
2017-Nov-25 18:30N 47°01' W 002°34'511.0
2017-Nov-25 18:00N 47°04' W 002°28'510.5
2017-Nov-25 17:30N 47°08' W 002°22'510.3
2017-Nov-25 17:00N 47°12' W 002°17'611.1
2017-Nov-25 16:29N 47°16' W 002°12'3 5.1
2017-Nov-25 15:48N 47°18' W 002°08'0 0.0
2017-Nov-25 15:30N 47°18' W 002°08'0 0.0
2017-Nov-25 11:48N 47°18' W 002°08'0 0.0
2017-Nov-25 10:42N 47°18' W 002°08'0 0.0
2017-Nov-25 10:27N 47°18' W 002°08'0 0.0
2017-Nov-25 09:51N 47°18' W 002°08'0 0.0
2017-Nov-25 09:06N 47°18' W 002°08'0 0.0
2017-Nov-25 08:54N 47°18' W 002°08'0 0.0
2017-Nov-25 08:30N 47°18' W 002°08'0 0.0
2017-Nov-25 07:57N 47°18' W 002°08'0 0.0
2017-Nov-25 07:18N 47°18' W 002°08'0 0.0
2017-Nov-25 06:57N 47°18' W 002°08'0 0.0
2017-Nov-25 06:30N 47°18' W 002°08'0 0.0
2017-Nov-25 06:00N 47°18' W 002°08'0 0.0
2017-Nov-25 05:24N 47°18' W 002°08'0 0.0
2017-Nov-25 05:00N 47°18' W 002°08'0 0.0
2017-Nov-25 04:27N 47°18' W 002°08'0 0.0
2017-Nov-25 03:57N 47°18' W 002°08'0 0.0
2017-Nov-25 03:31N 47°18' W 002°08'0 0.0
2017-Nov-25 02:55N 47°18' W 002°08'0 0.0
2017-Nov-25 02:24N 47°18' W 002°08'0 0.0
2017-Nov-25 01:57N 47°18' W 002°08'0 0.0
2017-Nov-25 01:30N 47°18' W 002°08'0 0.0
2017-Nov-25 00:57N 47°18' W 002°08'0 0.0
2017-Nov-25 00:24N 47°18' W 002°08'0 0.0
2017-Nov-24 23:54N 47°18' W 002°08'0 0.0
2017-Nov-24 23:30N 47°18' W 002°08'0 0.0
2017-Nov-24 23:00N 47°18' W 002°08'0 0.0
2017-Nov-24 22:30N 47°18' W 002°08'0 0.0
2017-Nov-24 21:54N 47°18' W 002°08'0 0.0
2017-Nov-24 21:30N 47°18' W 002°08'0 0.0
2017-Nov-24 21:00N 47°18' W 002°08'0 0.0
2017-Nov-24 20:30N 47°18' W 002°08'0 0.0
2017-Nov-24 20:00N 47°18' W 002°08'0 0.0
2017-Nov-24 19:31N 47°18' W 002°08'0 0.0
2017-Nov-24 18:57N 47°18' W 002°08'0 0.0
2017-Nov-24 18:21N 47°18' W 002°08'0 0.0
2017-Nov-24 17:57N 47°18' W 002°08'0 0.0
2017-Nov-24 17:30N 47°18' W 002°08'0 0.0
2017-Nov-24 16:54N 47°18' W 002°08'0 0.0
2017-Nov-24 16:30N 47°18' W 002°08'0 0.0
2017-Nov-24 16:00N 47°18' W 002°08'0 0.0
2017-Nov-24 15:24N 47°18' W 002°08'0 0.0
2017-Nov-24 14:57N 47°18' W 002°08'0 0.0
2017-Nov-24 10:43N 47°18' W 002°08'0 0.0
2017-Nov-24 10:19N 47°18' W 002°08'0 0.0
2017-Nov-24 09:57N 47°18' W 002°08'0 0.0
2017-Nov-24 09:30N 47°18' W 002°08'0 0.0
2017-Nov-24 08:57N 47°18' W 002°08'0 0.0
2017-Nov-24 08:30N 47°18' W 002°08'0 0.0
2017-Nov-24 08:00N 47°18' W 002°08'0 0.0
2017-Nov-24 07:30N 47°18' W 002°08'0 0.0
2017-Nov-24 07:00N 47°18' W 002°08'0 0.0
2017-Nov-24 06:27N 47°18' W 002°08'0 0.0
2017-Nov-24 06:00N 47°18' W 002°08'0 0.0
2017-Nov-24 05:24N 47°18' W 002°08'0 0.0
2017-Nov-24 05:00N 47°18' W 002°08'0 0.0
2017-Nov-24 04:27N 47°18' W 002°08'0 0.0
2017-Nov-24 02:42N 47°18' W 002°08'0 0.0
2017-Nov-24 02:24N 47°18' W 002°08'0 0.0
2017-Nov-24 01:57N 47°18' W 002°08'0 0.0
2017-Nov-24 01:27N 47°18' W 002°08'0 0.0
2017-Nov-24 01:00N 47°18' W 002°08'0 0.0
2017-Nov-24 00:15N 47°18' W 002°08'0 0.0
2017-Nov-24 00:00N 47°18' W 002°08'0 0.0
2017-Nov-23 23:24N 47°18' W 002°08'0 0.0
2017-Nov-23 22:57N 47°18' W 002°08'0 0.0
2017-Nov-23 22:30N 47°18' W 002°08'0 0.0
2017-Nov-23 22:00N 47°18' W 002°08'0 0.0
2017-Nov-23 21:27N 47°18' W 002°08'0 0.0
2017-Nov-23 21:00N 47°18' W 002°08'0 0.0
2017-Nov-23 20:27N 47°18' W 002°08'0 0.0
2017-Nov-23 20:00N 47°18' W 002°08'0 0.0
2017-Nov-23 18:54N 47°18' W 002°08'0 0.0
2017-Nov-23 18:30N 47°18' W 002°08'0 0.0
2017-Nov-23 18:00N 47°18' W 002°08'0 0.0
2017-Nov-23 17:30N 47°18' W 002°08'0 0.0
2017-Nov-23 16:57N 47°18' W 002°08'0 0.0
2017-Nov-23 16:30N 47°18' W 002°08'0 0.0
2017-Nov-23 09:03N 47°18' W 002°08'0 0.0
2017-Nov-23 08:54N 47°18' W 002°08'0 0.0
2017-Nov-23 08:27N 47°18' W 002°08'0 0.0
2017-Nov-23 07:57N 47°18' W 002°08'0 0.0
2017-Nov-23 07:30N 47°18' W 002°08'0 0.0
2017-Nov-23 06:57N 47°18' W 002°08'0 0.0
2017-Nov-23 06:30N 47°18' W 002°08'0 0.0
2017-Nov-23 06:00N 47°18' W 002°08'0 0.0
2017-Nov-23 05:30N 47°18' W 002°08'0 0.0
2017-Nov-23 04:48N 47°18' W 002°08'0 0.0
2017-Nov-23 04:30N 47°18' W 002°08'0 0.0
2017-Nov-23 03:54N 47°18' W 002°08'0 0.0
2017-Nov-23 03:21N 47°18' W 002°08'0 0.0
2017-Nov-23 02:51N 47°18' W 002°08'0 0.0
2017-Nov-23 02:27N 47°18' W 002°08'0 0.0
2017-Nov-23 01:45N 47°18' W 002°08'0 0.0
2017-Nov-23 01:06N 47°18' W 002°08'0 0.0
2017-Nov-23 00:51N 47°18' W 002°08'0 0.0
2017-Nov-23 00:21N 47°18' W 002°08'0 0.0
2017-Nov-23 00:00N 47°18' W 002°08'0 0.0
2017-Nov-22 23:30N 47°18' W 002°08'0 0.0
2017-Nov-22 22:57N 47°18' W 002°08'0 0.0
2017-Nov-22 22:27N 47°18' W 002°08'0 0.0
2017-Nov-22 22:00N 47°18' W 002°08'0 0.0
2017-Nov-22 21:30N 47°18' W 002°08'0 0.0
2017-Nov-22 21:00N 47°18' W 002°08'0 0.0
2017-Nov-22 20:30N 47°18' W 002°08'0 0.0
2017-Nov-22 20:00N 47°18' W 002°08'  
Track history (hours):
 
Tides and Currents Weather Stations Pressure Air Temp Water Temp Dewpoint Dewpoint Depression Visibility Wind Speed Wind Dir Waves Ship Positions

Hatsu Courage (Marshall Islands)

Last reported at 2017-Dec-02 03:00 UTC. Time now 2017-Dec-15 18:16 UTC.
Position N 49°48' W 003°50'.
Warning: this ship's position is 13 days out of date.

Length 200 m; draft 8.4 m.

Type: Cargo ship. MMSI: 538006034.

Date/timePositionNaut miles runAvg speedWind from/ knotsBaromVisibWave heightAir tempDewpointWater temp
2017-Dec-02 03:00N 49°48' W 003°50'1712.3
2017-Dec-02 01:38N 49°53' W 003°25'213.2
2017-Dec-02 01:30N 49°54' W 003°23'713.8
2017-Dec-02 01:01N 49°56' W 003°13'714.3
2017-Dec-02 00:31N 49°58' W 003°02'714.9
2017-Dec-02 00:01N 50°01' W 002°51'815.4
2017-Dec-01 23:31N 50°03' W 002°40'815.5
2017-Dec-01 23:01N 50°05' W 002°28'1215.2
2017-Dec-01 22:13N 50°08' W 002°10'314.7
2017-Dec-01 22:01N 50°09' W 002°05'714.1
2017-Dec-01 21:30N 50°11' W 001°55'713.2
2017-Dec-01 21:00N 50°13' W 001°45'612.5
2017-Dec-01 20:30N 50°14' W 001°35'611.7
2017-Dec-01 20:01N 50°16' W 001°27'611.1
2017-Dec-01 19:30N 50°17' W 001°18'3610.9
2017-Dec-01 16:10N 50°28' W 000°23'413.2
2017-Dec-01 15:52N 50°29' W 000°18'513.5
2017-Dec-01 15:30N 50°31' W 000°10'714.2
2017-Dec-01 15:00N 50°33' E 000°01'714.7
2017-Dec-01 14:30N 50°34' E 000°12'715.0
2017-Dec-01 14:00N 50°36' E 000°23'714.8
2017-Dec-01 13:30N 50°38' E 000°34'714.7
2017-Dec-01 13:00N 50°42' E 000°44'714.3
2017-Dec-01 12:30N 50°46' E 000°53'713.8
2017-Dec-01 12:00N 50°51' E 001°02'1013.0
2017-Dec-01 11:16N 50°57' E 001°14'312.0
2017-Dec-01 10:59N 50°59' E 001°18'611.6
2017-Dec-01 10:30N 51°03' E 001°25'612.1
2017-Dec-01 10:00N 51°06' E 001°32'612.0
2017-Dec-01 09:31N 51°10' E 001°40'611.9
2017-Dec-01 09:00N 51°15' E 001°46'713.2
2017-Dec-01 08:30N 51°21' E 001°50'713.7
2017-Dec-01 08:00N 51°27' E 001°54'714.5
2017-Dec-01 07:30N 51°32' E 002°02'714.8
2017-Dec-01 07:00N 51°38' E 002°11'7014.0
2017-Dec-01 01:58N 52°28' E 003°30'712.2
2017-Dec-01 01:25N 52°31' E 003°40'512.3
2017-Dec-01 01:00N 52°32' E 003°48'612.3
2017-Dec-01 00:30N 52°32' E 003°58'612.5
2017-Dec-01 00:00N 52°31' E 004°09'613.0
2017-Nov-30 23:30N 52°30' E 004°19'510.8
2017-Nov-30 23:00N 52°29' E 004°28'510.5
2017-Nov-30 22:31N 52°28' E 004°36'0 0.6
2017-Nov-30 22:01N 52°28' E 004°37'1 2.5
2017-Nov-30 21:30N 52°28' E 004°39'4 7.5
2017-Nov-30 21:01N 52°26' E 004°44'4 7.7
2017-Nov-30 20:30N 52°25' E 004°50'1 2.5
2017-Nov-30 19:58N 52°24' E 004°52'0 0.1
2017-Nov-30 19:28N 52°24' E 004°52'0 0.0
2017-Nov-30 18:58N 52°24' E 004°52'0 0.0
2017-Nov-30 18:25N 52°24' E 004°52'0 0.0
2017-Nov-30 17:58N 52°24' E 004°52'0 0.0
2017-Nov-30 17:28N 52°24' E 004°52'0 0.0
2017-Nov-30 16:58N 52°24' E 004°52'0 0.0
2017-Nov-30 16:28N 52°24' E 004°52'0 0.0
2017-Nov-30 15:58N 52°24' E 004°52'0 0.0
2017-Nov-30 15:28N 52°24' E 004°52'0 0.0
2017-Nov-30 14:58N 52°24' E 004°52'0 0.0
2017-Nov-30 14:28N 52°24' E 004°52'0 0.0
2017-Nov-30 13:58N 52°24' E 004°52'0 0.0
2017-Nov-30 13:28N 52°24' E 004°52'0 0.0
2017-Nov-30 12:58N 52°24' E 004°52'0 0.0
2017-Nov-30 12:28N 52°24' E 004°52'0 0.0
2017-Nov-30 11:58N 52°24' E 004°52'0 0.0
2017-Nov-30 11:28N 52°24' E 004°52'0 0.0
2017-Nov-30 10:58N 52°24' E 004°52'0 0.0
2017-Nov-30 10:28N 52°24' E 004°52'0 0.0
2017-Nov-30 09:58N 52°24' E 004°52'0 0.0
2017-Nov-30 09:28N 52°24' E 004°52'0 0.0
2017-Nov-30 08:58N 52°24' E 004°52'0 0.0
2017-Nov-30 08:28N 52°24' E 004°52'0 0.0
2017-Nov-30 07:58N 52°24' E 004°52'0 0.0
2017-Nov-30 07:28N 52°24' E 004°52'0 0.0
2017-Nov-30 06:58N 52°24' E 004°52'0 0.0
2017-Nov-30 06:28N 52°24' E 004°52'0 0.0
2017-Nov-30 05:58N 52°24' E 004°52'0 0.0
2017-Nov-30 05:28N 52°24' E 004°52'0 0.0
2017-Nov-30 04:58N 52°24' E 004°52'0 0.0
2017-Nov-30 04:25N 52°24' E 004°52'0 0.0
2017-Nov-30 03:58N 52°24' E 004°52'0 0.0
2017-Nov-30 03:28N 52°24' E 004°52'0 0.0
2017-Nov-30 02:58N 52°24' E 004°52'0 0.0
2017-Nov-30 02:28N 52°24' E 004°52'0 0.0
2017-Nov-30 01:58N 52°24' E 004°52'0 0.0
2017-Nov-30 01:28N 52°24' E 004°52'0 0.0
2017-Nov-30 00:58N 52°24' E 004°52'0 0.0
2017-Nov-30 00:28N 52°24' E 004°52'0 0.0
2017-Nov-29 23:55N 52°24' E 004°52'0 0.0
2017-Nov-29 23:28N 52°24' E 004°52'0 0.0
2017-Nov-29 22:58N 52°24' E 004°52'0 0.0
2017-Nov-29 22:28N 52°24' E 004°52'0 0.0
2017-Nov-29 21:58N 52°24' E 004°52'0 0.0
2017-Nov-29 21:28N 52°24' E 004°52'0 0.0
2017-Nov-29 20:58N 52°24' E 004°52'0 0.0
2017-Nov-29 20:28N 52°24' E 004°52'0 0.0
2017-Nov-29 19:55N 52°24' E 004°52'0 0.0
2017-Nov-29 19:28N 52°24' E 004°52'0 0.0
2017-Nov-29 18:58N 52°24' E 004°52'0 0.0
2017-Nov-29 18:28N 52°24' E 004°52'0 0.0
2017-Nov-29 17:58N 52°24' E 004°52'0 0.0
2017-Nov-29 17:28N 52°24' E 004°52'0 0.0
2017-Nov-29 16:58N 52°24' E 004°52'0 0.0
2017-Nov-29 16:25N 52°24' E 004°52'0 0.0
2017-Nov-29 15:58N 52°24' E 004°52'0 0.0
2017-Nov-29 15:28N 52°24' E 004°52'0 0.0
2017-Nov-29 14:58N 52°24' E 004°52'0 0.0
2017-Nov-29 14:28N 52°24' E 004°52'0 0.0
2017-Nov-29 13:55N 52°24' E 004°52'0 0.0
2017-Nov-29 13:28N 52°24' E 004°52'0 0.0
2017-Nov-29 12:55N 52°24' E 004°52'0 0.0
2017-Nov-29 12:28N 52°24' E 004°52'0 0.0
2017-Nov-29 11:55N 52°24' E 004°52'0 0.0
2017-Nov-29 11:28N 52°24' E 004°52'0 0.0
2017-Nov-29 10:58N 52°24' E 004°52'0 0.0
2017-Nov-29 10:28N 52°24' E 004°52'0 0.0
2017-Nov-29 09:55N 52°24' E 004°52'0 0.0
2017-Nov-29 09:28N 52°24' E 004°52'0 0.0
2017-Nov-29 08:58N 52°24' E 004°52'0 0.0
2017-Nov-29 08:28N 52°24' E 004°52'0 0.0
2017-Nov-29 07:58N 52°24' E 004°52'0 0.0
2017-Nov-29 07:28N 52°24' E 004°52'0 0.0
2017-Nov-29 06:58N 52°24' E 004°52'0 0.0
2017-Nov-29 06:25N 52°24' E 004°52'0 0.0
2017-Nov-29 05:58N 52°24' E 004°52'0 0.0
2017-Nov-29 05:25N 52°24' E 004°52'0 0.0
2017-Nov-29 04:58N 52°24' E 004°52'0 0.0
2017-Nov-29 04:28N 52°24' E 004°52'0 0.0
2017-Nov-29 03:58N 52°24' E 004°52'0 0.0
2017-Nov-29 03:28N 52°24' E 004°52'0 0.0
2017-Nov-29 02:55N 52°24' E 004°52'0 0.0
2017-Nov-29 02:28N 52°24' E 004°52'0 0.0
2017-Nov-29 01:58N 52°24' E 004°52'0 0.0
2017-Nov-29 01:25N 52°24' E 004°52'0 0.0
2017-Nov-29 00:58N 52°24' E 004°52'0 0.0
2017-Nov-29 00:28N 52°24' E 004°52'0 0.0
2017-Nov-28 23:58N 52°24' E 004°52'0 0.0
2017-Nov-28 23:28N 52°24' E 004°52'0 0.0
2017-Nov-28 22:58N 52°24' E 004°52'0 0.0
2017-Nov-28 22:28N 52°24' E 004°52'0 0.0
2017-Nov-28 21:58N 52°24' E 004°52'0 0.0
2017-Nov-28 21:28N 52°24' E 004°52'0 0.0
2017-Nov-28 20:58N 52°24' E 004°52'0 0.0
2017-Nov-28 20:28N 52°24' E 004°52'0 0.0
2017-Nov-28 19:58N 52°24' E 004°52'0 0.0
2017-Nov-28 19:28N 52°24' E 004°52'0 0.0
2017-Nov-28 18:58N 52°24' E 004°52'0 0.0
2017-Nov-28 18:28N 52°24' E 004°52'0 0.0
2017-Nov-28 17:58N 52°24' E 004°52'0 0.0
2017-Nov-28 17:28N 52°24' E 004°52'0 0.0
2017-Nov-28 16:58N 52°24' E 004°52'0 0.0
2017-Nov-28 16:25N 52°24' E 004°52'0 0.0
2017-Nov-28 15:58N 52°24' E 004°52'0 0.0
2017-Nov-28 14:58N 52°24' E 004°52'0 0.0
2017-Nov-28 14:28N 52°24' E 004°52'0 0.0
2017-Nov-28 13:55N 52°24' E 004°52'0 0.0
2017-Nov-28 13:28N 52°24' E 004°52'0 0.0
2017-Nov-28 12:58N 52°24' E 004°52'0 0.0
2017-Nov-28 12:28N 52°24' E 004°52'0 0.0
2017-Nov-28 11:55N 52°24' E 004°52'0 0.0
2017-Nov-28 11:25N 52°24' E 004°52'0 0.0
2017-Nov-28 10:58N 52°24' E 004°52'0 0.0
2017-Nov-28 10:28N 52°24' E 004°52'0 0.0
2017-Nov-28 09:58N 52°24' E 004°52'0 0.0
2017-Nov-28 09:28N 52°24' E 004°52'0 0.0
2017-Nov-28 08:58N 52°24' E 004°52'0 0.0
2017-Nov-28 08:28N 52°24' E 004°52'0 0.0
2017-Nov-28 07:58N 52°24' E 004°52'0 0.0
2017-Nov-28 07:28N 52°24' E 004°52'0 0.0
2017-Nov-28 06:58N 52°24' E 004°52'0 0.0
2017-Nov-28 06:28N 52°24' E 004°52'0 0.0
2017-Nov-28 05:58N 52°24' E 004°52'0 0.0
2017-Nov-28 05:28N 52°24' E 004°52'0 0.0
2017-Nov-28 04:28N 52°24' E 004°52'0 0.0
2017-Nov-28 03:55N 52°24' E 004°52'0 0.0
2017-Nov-28 03:28N 52°24' E 004°52'0 0.0
2017-Nov-28 02:58N 52°24' E 004°52'0 0.0
2017-Nov-28 02:28N 52°24' E 004°52'0 0.0
2017-Nov-28 01:58N 52°24' E 004°52'0 0.1
2017-Nov-28 01:28N 52°24' E 004°52'1 1.4
2017-Nov-28 01:00N 52°24' E 004°52'3 6.0
2017-Nov-28 00:30N 52°25' E 004°48'4 8.6
2017-Nov-28 00:00N 52°27' E 004°41'3 6.2
2017-Nov-27 23:31N 52°28' E 004°36'0 0.3
2017-Nov-27 23:01N 52°28' E 004°36'4 8.6
2017-Nov-27 22:30N 52°29' E 004°29'3 6.8
2017-Nov-27 22:00N 52°29' E 004°24'4 7.7
2017-Nov-27 21:30N 52°29' E 004°17'5 9.3
2017-Nov-27 21:00N 52°29' E 004°10'611.4
2017-Nov-27 20:30N 52°28' E 004°01'510.3
2017-Nov-27 20:00N 52°27' E 003°52'612.2
2017-Nov-27 19:30N 52°26' E 003°42'712.8
2017-Nov-27 19:00N 52°23' E 003°33'5912.5
2017-Nov-27 14:16N 51°40' E 002°26'312.2
2017-Nov-27 14:00N 51°37' E 002°23'612.2
2017-Nov-27 13:30N 51°33' E 002°17'612.6
2017-Nov-27 13:00N 51°28' E 002°10'612.9
2017-Nov-27 12:30N 51°23' E 002°03'713.1
2017-Nov-27 12:00N 51°19' E 001°56'713.5
2017-Nov-27 11:30N 51°14' E 001°49'713.7
2017-Nov-27 11:00N 51°08' E 001°42'713.9
2017-Nov-27 10:30N 51°03' E 001°36'713.5
2017-Nov-27 10:00N 50°57' E 001°30'713.3
2017-Nov-27 09:30N 50°50' E 001°26'713.0
2017-Nov-27 08:59N 50°44' E 001°23'1012.6
2017-Nov-27 08:12N 50°37' E 001°12'412.3
2017-Nov-27 07:51N 50°34' E 001°08'1612.3
2017-Nov-27 06:35N 50°27' E 000°46'212.7
2017-Nov-27 06:25N 50°26' E 000°42'512.7
2017-Nov-27 06:00N 50°25' E 000°34'612.6
2017-Nov-27 05:30N 50°23' E 000°25'612.7
2017-Nov-27 05:00N 50°22' E 000°15'713.0
2017-Nov-27 04:29N 50°20' E 000°05'613.1
2017-Nov-27 04:00N 50°19' W 000°05'713.4
2017-Nov-27 03:30N 50°17' W 000°15'3514.2
2017-Nov-27 01:04N 50°07' W 001°06'114.9
2017-Nov-27 01:01N 50°07' W 001°08'814.5
2017-Nov-27 00:28N 50°04' W 001°20'714.5
2017-Nov-27 00:01N 50°03' W 001°30'714.2
2017-Nov-26 23:31N 50°01' W 001°40'714.0
2017-Nov-26 23:00N 49°59' W 001°51'713.6
2017-Nov-26 22:30N 49°58' W 002°01'713.1
2017-Nov-26 22:00N 49°56' W 002°11'1012.7
2017-Nov-26 21:14N 49°54' W 002°26'412.5
2017-Nov-26 20:57N 49°53' W 002°31'612.4
2017-Nov-26 20:30N 49°51' W 002°39'612.3
2017-Nov-26 20:00N 49°50' W 002°48'612.1
2017-Nov-26 19:30N 49°47' W 002°57'612.1
2017-Nov-26 19:00N 49°44' W 003°05'612.2
2017-Nov-26 18:30N 49°41' W 003°13'9712.5
2017-Nov-26 10:47N 48°52' W 005°21'412.9
2017-Nov-26 10:30N 48°50' W 005°26'5410.8
2017-Nov-26 05:30N 47°56' W 005°30'713.5
2017-Nov-26 05:00N 47°51' W 005°25'713.3
2017-Nov-26 04:28N 47°44' W 005°20'613.2
2017-Nov-26 04:00N 47°39' W 005°15'612.9
2017-Nov-26 03:30N 47°34' W 005°09'3712.8
2017-Nov-26 00:38N 47°22' W 004°18'212.4
2017-Nov-26 00:29N 47°21' W 004°16'3312.7
2017-Nov-25 21:53N 47°10' W 003°30'612.6
2017-Nov-25 21:24N 47°08' W 003°21'512.5
2017-Nov-25 21:00N 47°06' W 003°15'612.5
2017-Nov-25 20:30N 47°04' W 003°06'612.6
2017-Nov-25 20:00N 47°02' W 002°57'1011.5
2017-Nov-25 19:09N 46°58' W 002°44'211.0
2017-Nov-25 19:00N 46°59' W 002°42'511.0
2017-Nov-25 18:30N 47°01' W 002°34'511.0
2017-Nov-25 18:00N 47°04' W 002°28'510.5
2017-Nov-25 17:30N 47°08' W 002°22'510.3
2017-Nov-25 17:00N 47°12' W 002°17'611.1
2017-Nov-25 16:29N 47°16' W 002°12'3 5.1
2017-Nov-25 15:48N 47°18' W 002°08'0 0.0
2017-Nov-25 15:30N 47°18' W 002°08'0 0.0
2017-Nov-25 11:48N 47°18' W 002°08'0 0.0
2017-Nov-25 10:42N 47°18' W 002°08'0 0.0
2017-Nov-25 10:27N 47°18' W 002°08'0 0.0
2017-Nov-25 09:51N 47°18' W 002°08'0 0.0
2017-Nov-25 09:06N 47°18' W 002°08'0 0.0
2017-Nov-25 08:54N 47°18' W 002°08'0 0.0
2017-Nov-25 08:30N 47°18' W 002°08'0 0.0
2017-Nov-25 07:57N 47°18' W 002°08'0 0.0
2017-Nov-25 07:18N 47°18' W 002°08'0 0.0
2017-Nov-25 06:57N 47°18' W 002°08'0 0.0
2017-Nov-25 06:30N 47°18' W 002°08'0 0.0
2017-Nov-25 06:00N 47°18' W 002°08'0 0.0
2017-Nov-25 05:24N 47°18' W 002°08'0 0.0
2017-Nov-25 05:00N 47°18' W 002°08'0 0.0
2017-Nov-25 04:27N 47°18' W 002°08'0 0.0
2017-Nov-25 03:57N 47°18' W 002°08'0 0.0
2017-Nov-25 03:31N 47°18' W 002°08'0 0.0
2017-Nov-25 02:55N 47°18' W 002°08'0 0.0
2017-Nov-25 02:24N 47°18' W 002°08'0 0.0
2017-Nov-25 01:57N 47°18' W 002°08'0 0.0
2017-Nov-25 01:30N 47°18' W 002°08'0 0.0
2017-Nov-25 00:57N 47°18' W 002°08'0 0.0
2017-Nov-25 00:24N 47°18' W 002°08'0 0.0
2017-Nov-24 23:54N 47°18' W 002°08'0 0.0
2017-Nov-24 23:30N 47°18' W 002°08'0 0.0
2017-Nov-24 23:00N 47°18' W 002°08'0 0.0
2017-Nov-24 22:30N 47°18' W 002°08'0 0.0
2017-Nov-24 21:54N 47°18' W 002°08'0 0.0
2017-Nov-24 21:30N 47°18' W 002°08'0 0.0
2017-Nov-24 21:00N 47°18' W 002°08'0 0.0
2017-Nov-24 20:30N 47°18' W 002°08'0 0.0
2017-Nov-24 20:00N 47°18' W 002°08'0 0.0
2017-Nov-24 19:31N 47°18' W 002°08'0 0.0
2017-Nov-24 18:57N 47°18' W 002°08'0 0.0
2017-Nov-24 18:21N 47°18' W 002°08'0 0.0
2017-Nov-24 17:57N 47°18' W 002°08'0 0.0
2017-Nov-24 17:30N 47°18' W 002°08'0 0.0
2017-Nov-24 16:54N 47°18' W 002°08'0 0.0
2017-Nov-24 16:30N 47°18' W 002°08'0 0.0
2017-Nov-24 16:00N 47°18' W 002°08'0 0.0
2017-Nov-24 15:24N 47°18' W 002°08'0 0.0
2017-Nov-24 14:57N 47°18' W 002°08'0 0.0
2017-Nov-24 10:43N 47°18' W 002°08'0 0.0
2017-Nov-24 10:19N 47°18' W 002°08'0 0.0
2017-Nov-24 09:57N 47°18' W 002°08'0 0.0
2017-Nov-24 09:30N 47°18' W 002°08'0 0.0
2017-Nov-24 08:57N 47°18' W 002°08'0 0.0
2017-Nov-24 08:30N 47°18' W 002°08'0 0.0
2017-Nov-24 08:00N 47°18' W 002°08'0 0.0
2017-Nov-24 07:30N 47°18' W 002°08'0 0.0
2017-Nov-24 07:00N 47°18' W 002°08'0 0.0
2017-Nov-24 06:27N 47°18' W 002°08'0 0.0
2017-Nov-24 06:00N 47°18' W 002°08'0 0.0
2017-Nov-24 05:24N 47°18' W 002°08'0 0.0
2017-Nov-24 05:00N 47°18' W 002°08'0 0.0
2017-Nov-24 04:27N 47°18' W 002°08'0 0.0
2017-Nov-24 02:42N 47°18' W 002°08'0 0.0
2017-Nov-24 02:24N 47°18' W 002°08'0 0.0
2017-Nov-24 01:57N 47°18' W 002°08'0 0.0
2017-Nov-24 01:27N 47°18' W 002°08'0 0.0
2017-Nov-24 01:00N 47°18' W 002°08'0 0.0
2017-Nov-24 00:15N 47°18' W 002°08'0 0.0
2017-Nov-24 00:00N 47°18' W 002°08'0 0.0
2017-Nov-23 23:24N 47°18' W 002°08'0 0.0
2017-Nov-23 22:57N 47°18' W 002°08'0 0.0
2017-Nov-23 22:30N 47°18' W 002°08'0 0.0
2017-Nov-23 22:00N 47°18' W 002°08'0 0.0
2017-Nov-23 21:27N 47°18' W 002°08'0 0.0
2017-Nov-23 21:00N 47°18' W 002°08'0 0.0
2017-Nov-23 20:27N 47°18' W 002°08'0 0.0
2017-Nov-23 20:00N 47°18' W 002°08'0 0.0
2017-Nov-23 18:54N 47°18' W 002°08'0 0.0
2017-Nov-23 18:30N 47°18' W 002°08'0 0.0
2017-Nov-23 18:00N 47°18' W 002°08'0 0.0
2017-Nov-23 17:30N 47°18' W 002°08'0 0.0
2017-Nov-23 16:57N 47°18' W 002°08'0 0.0
2017-Nov-23 16:30N 47°18' W 002°08'0 0.0
2017-Nov-23 09:03N 47°18' W 002°08'0 0.0
2017-Nov-23 08:54N 47°18' W 002°08'0 0.0
2017-Nov-23 08:27N 47°18' W 002°08'0 0.0
2017-Nov-23 07:57N 47°18' W 002°08'0 0.0
2017-Nov-23 07:30N 47°18' W 002°08'0 0.0
2017-Nov-23 06:57N 47°18' W 002°08'0 0.0
2017-Nov-23 06:30N 47°18' W 002°08'0 0.0
2017-Nov-23 06:00N 47°18' W 002°08'0 0.0
2017-Nov-23 05:30N 47°18' W 002°08'0 0.0
2017-Nov-23 04:48N 47°18' W 002°08'0 0.0
2017-Nov-23 04:30N 47°18' W 002°08'0 0.0
2017-Nov-23 03:54N 47°18' W 002°08'0 0.0
2017-Nov-23 03:21N 47°18' W 002°08'0 0.0
2017-Nov-23 02:51N 47°18' W 002°08'0 0.0
2017-Nov-23 02:27N 47°18' W 002°08'0 0.0
2017-Nov-23 01:45N 47°18' W 002°08'0 0.0
2017-Nov-23 01:06N 47°18' W 002°08'0 0.0
2017-Nov-23 00:51N 47°18' W 002°08'0 0.0
2017-Nov-23 00:21N 47°18' W 002°08'0 0.0
2017-Nov-23 00:00N 47°18' W 002°08'0 0.0
2017-Nov-22 23:30N 47°18' W 002°08'0 0.0
2017-Nov-22 22:57N 47°18' W 002°08'0 0.0
2017-Nov-22 22:27N 47°18' W 002°08'0 0.0
2017-Nov-22 22:00N 47°18' W 002°08'0 0.0
2017-Nov-22 21:30N 47°18' W 002°08'0 0.0
2017-Nov-22 21:00N 47°18' W 002°08'0 0.0
2017-Nov-22 20:30N 47°18' W 002°08'0 0.0
2017-Nov-22 20:00N 47°18' W 002°08'  

Dump ship's entire track history